Terminal Aerodrome Forecast
Issued by NWS Wakefield, VA

Home | Current Version | Previous Version | Text Only | Print | Product List | Glossary On
Versions: 1 2 3 4 5 6 7 8 9 10 11 12 13 14 15 16
000
FTUS41 KAKQ 220200 AAA
TAFORF
TAF AMD
KORF 220248Z 2203/2224 33007KT P6SM BKN050
      TEMPO 2204/2207 34010G18KT -RA BKN015 OVC040
     FM221000 32008KT 4SM -RA BR BKN015 OVC030
     FM221500 34012G18KT 4SM -RA BR OVC008
     FM221900 34015G25KT P6SM BKN040=

USA.gov is the U.S. government's official web portal to all federal, state and local government web resources and services.